When searching for properties, you can group property listings according to any of the blue headers. Click the desired header and the properties will sort alphabetically.

Sale Date Case # Property City Zip County Bid
07/02/2019 BVF-18-00549-4 1512 Ken Gardens Rd Albany 31707 Dougherty Not Available
07/02/2019 BVF-19-02892-1 904 Cordele Rd Albany 31705 Dougherty $43,200.00
07/02/2019 BVF-18-00120-1 104 Briar Creek Dr Alma 31510 Bacon $68,500.00
07/02/2019 BVF-16-01456-8 1074 Ponce De Leon Ave Ne Atlanta 30306 Fulton Go to Auction.com
07/02/2019 LMA-18-05502-7 24 Hutchinson Street Ne Atlanta 30307 DeKalb $423,725.42
07/02/2019 BVF-19-02311-1 3377 Bobolink Cir Atlanta 30311 Fulton $93,024.71
07/02/2019 LNC-19-02176-1 4845 Ralin Ct Sw Atlanta 30331 Fulton Not Available
07/02/2019 SBC-19-03139-1 5656 Wakehurst Dr Atlanta 30349 Fulton Go to Auction.com
07/02/2019 BAC-19-03268-1 6594 Dunwoody Trl Austell 30168 Cobb Go to Auction.com
07/02/2019 QKN-19-02912-1 2205a Heath Dr Ball Ground 30107 Cherokee $202,870.83
07/02/2019 AMI-18-06677-2 124 Howards Road Barnesville 30204 Lamar $53,100.00
07/02/2019 BVF-18-03039-1 4459 Etterle Rd Blythe 30805 Richmond $23,700.00
07/02/2019 CMS-15-05576-17 206 Lakes Dr Brunswick 31523 Glynn $248,788.00
07/02/2019 RMU-19-01898-3 95 Lincoln Street Camilla 31730 Mitchell $57,000.00
07/02/2019 PNY-17-06001-13 148 Bell Loop Chatsworth 30705 Murray Go to Auction.com
07/02/2019 VEL-19-02417-1 2227 & 2245 Godby Road College Park 30349 Fulton $25,000.00
07/02/2019 BVC-17-04988-1 2525 Norris Rd, Unit 93 Columbus 31907 Muscogee $84,312.22
07/02/2019 SHP-17-08129-1 4815 Marino St Columbus 31907 Muscogee Go to Auction.com
07/02/2019 BVF-16-06635-4 517 47th St Columbus 31904 Muscogee Not Available
07/02/2019 NAT-09-36431-36 2478 Vineyards Creek Church Rd Comer 30629 Madison Go to Auction.com
07/02/2019 SHP-12-01702-16 2840 Stone Bridge Trl Sw Conyers 30094 Rockdale Go to Auction.com
07/02/2019 PNY-19-01178-1 1995 Villa Spring Ct Dacula 30019 Gwinnett Go to Auction.com
07/02/2019 PNY-19-02414-1 104 Ivy Glen Ct Dallas 30157 Paulding Not Available
07/02/2019 LNC-19-02011-1 61 Stone Lake Court Dallas 30157 Paulding $200,307.72
07/02/2019 PNY-15-03260-7 2941 Old Grade Rd Dalton 30721 Whitfield Go to Auction.com
07/02/2019 RMU-16-01780-4 1496 Woodfern Drive Decatur 30030 DeKalb $178,000.00
07/02/2019 SBC-17-00712-8 1566 Moncrief Cir Decatur 30033 DeKalb Go to Auction.com
07/02/2019 PNY-19-03152-1 2308 Emerald Springs Dr Decatur 30035 DeKalb Go to Auction.com
07/02/2019 PNY-19-02984-1 601 Westgreen Rd Douglas 31533 Coffee Go to Auction.com
07/02/2019 BVF-19-02891-1 1268 Cave Springs Road Douglasville 30134 Douglas $46,200.00
07/02/2019 BVF-18-00348-1 209 Ridgefield Dr Douglasville 30134 Paulding $85,115.73
07/02/2019 PNY-19-03209-1 3948 Spring Ter Douglasville 30134 Douglas Go to Auction.com
07/02/2019 CMS-18-05907-8 4538 Waving Willow Ct Douglasville 30135 Douglas Go to Auction.com
07/02/2019 SHP-11-08166-7 5602 West Chapel Hill Road Douglasville 30135 Douglas Go to Auction.com
07/02/2019 SPS-14-01241-32 6395 Queensdale Drive Douglasville 30135 Douglas $192,950.00
07/02/2019 SHP-19-03334-1 6503 Snowbird Ln Douglasville 30134 Douglas Go to Auction.com
07/02/2019 PNY-19-02077-1 3286 Sir Henry St East Point 30344 Fulton Go to Auction.com
07/02/2019 QKN-19-02752-1 822 3rd Ave Eastman 31023 Dodge Go to Auction.com
07/02/2019 BVF-18-03172-2 2037 River Rd Ellenwood 30294 DeKalb Go to Auction.com
07/02/2019 LNC-18-07502-9 5065 Highway 92 Fairburn 30213 Fulton Go to Auction.com
07/02/2019 LNC-19-02381-1 7480 Parkland Bend Fairburn 30213 Fulton Go to Auction.com
07/02/2019 LNC-18-06755-8 4802 Tuong Yen Ct Forest Park 30297 Clayton Go to Auction.com
07/02/2019 BVF-19-03309-1 2496 Vaughn Rd Griffin 30223 Spalding $77,733.90
07/02/2019 FREM-19-00629-1 1135 Creekside Cir Hinesville 31313 Liberty Go to Auction.com
07/02/2019 SHP-19-02757-1 106 Trophy Ln Jackson 30233 Butts $279,886.50
07/02/2019 PNY-19-03066-1 66 Georgia Bell Jefferson 30549 Jackson Go to Auction.com
07/02/2019 BAC-19-03110-1 260 Sierra Road Jesup 31545 Wayne Go to Auction.com
07/02/2019 RMU-19-03102-1 526 Cypress Estates Cove Jonesboro 30238 Clayton $84,203.08
07/02/2019 BVF-09-30209-3 668 Jeb Stuart Drive Jonesboro 30238 Clayton Go to Auction.com
07/02/2019 FRC-17-00959-1 9746 Brown Rd Jonesboro 30238 Clayton Not Available
07/02/2019 FREM-19-03055-1 318 Grand Reserve Way Kathleen 31047 Houston Go to Auction.com
07/02/2019 PNY-19-02473-1 163 Mcstotts Rd Kingston 30145 Bartow Go to Auction.com
07/02/2019 BVF-18-03759-1 5367 Jonesboro Rd Lake City 30220 Clayton $236,000.00
07/02/2019 MTB-16-04426-18 1378 Mill Path Loop Lawrenceville 30045 Gwinnett Go to Auction.com
07/02/2019 SHP-18-03934-4 2021 Huntcliff Dr Lawrenceville 30043 Gwinnett Go to Auction.com
07/02/2019 CMS-18-02394-9 3114 Rockview Dr Lithonia 30038 DeKalb $126,800.00
07/02/2019 PNY-18-04959-3 6300 Lake Valley Pt Lithonia 30058 DeKalb Go to Auction.com
07/02/2019 BVF-17-06552-8 6860 Parkway Dr Lithonia 30058 DeKalb $63,800.00
07/02/2019 RMU-15-04526-9 5861 Brookside Dr. Se Mableton 30126 Cobb $116,885.44
07/02/2019 NAT-19-02958-1 1107 Greendale Ct Macon 31210 Bibb Go to Auction.com
07/02/2019 NAT-16-05936-8 2453 Donald Avenue Macon 31217 Bibb Go to Auction.com
07/02/2019 BVF-19-03192-1 5527 General Harris Dr Macon 31217 Bibb $20,100.00
07/02/2019 RCU-19-03451-1 5836 Meadows Drive Macon 31216 Bibb $31,781.00
07/02/2019 BVF-19-03042-1 6475 Bevin Dr N Macon 31216 Bibb $46,430.23
07/02/2019 MTB-19-03039-1 850 Green Oak Ter Macon 31210 Bibb Go to Xome.com
07/02/2019 BVF-19-02890-1 1710 Brandon Lee Way Marietta 30060 Cobb $35,975.05
07/02/2019 FREM-18-02828-7 571 Snapping Shoals Rd Mcdonough 30252 Henry Go to realtybid.com
07/02/2019 BVF-19-01881-1 4355 Hwy 337 Menlo 30731 Chattooga $30,000.00
07/02/2019 FREM-18-04488-6 90 Janees Way Midland 31820 Harris Go to Auction.com
07/02/2019 SHP-19-00016-1 280 West Road Poulan 31781 Worth Go to Auction.com
07/02/2019 PNY-19-03069-1 1501 Derby Ct Ne Ranger 30734 Gordon Go to Auction.com
07/02/2019 DMI-19-02233-1 25n Crawford St Reynolds 31076 Taylor $48,360.00
07/02/2019 QKN-19-02560-1 2 W Linden St Se Rome 30161 Floyd Go to Auction.com
07/02/2019 BVF-19-01641-1 212 Mayview Lane Sandersville 31082 Washington $32,000.00
07/02/2019 PNY-19-03260-1 13014 Largo Dr Savannah 31419 Chatham Go to Auction.com
07/02/2019 RMU-18-01902-2 911 Mill Dr Savannah 31419 Chatham $139,104.38
07/02/2019 FAY-18-06419-1 1084 Fleming St Smyrna 30080 Cobb Not Available
07/02/2019 TMS-19-00713-3 3016 Arden Way Snellville 30039 Gwinnett Go to Auction.com
07/02/2019 PNY-19-03279-1 686 W Hightower Trl Social Circle 30025 Walton Go to Auction.com
07/02/2019 TMS-19-03011-1 309 Edison Dr Stockbridge 30281 Henry Go to Auction.com
07/02/2019 SHP-19-03169-1 85 Sandy Drive Stockbridge 30281 Henry $144,000.00
07/02/2019 PNY-19-03208-1 224 S Rockborough Court Stone Mountain 30083 DeKalb Go to Auction.com
07/02/2019 PNY-16-02211-8 5133 Mainstreet Park Drive Stone Mountain 30088 DeKalb Go to Auction.com
07/02/2019 PNY-18-07629-5 399 Sage St Temple 30179 Carroll Go to Auction.com
07/02/2019 FAY-19-03101-1 497 Willow Creek Dr Temple 30179 Carroll Go to Auction.com
07/02/2019 SBC-19-03131-1 5545 Village Trace Union City 30291 Fulton Not Available
07/02/2019 PNY-19-02765-1 1700 Eli Pl Valdosta 31602 Lowndes Not Available
07/02/2019 BSI-17-02768-11 1804 N Troupe St Valdosta 31602 Lowndes $28,600.00
07/02/2019 QKN-19-02754-1 3053 Academy Dr Valdosta 31605 Lowndes Go to Auction.com
07/02/2019 BVF-19-02606-1 603 Paine St Valdosta 31601 Lowndes $1,300.00
07/02/2019 SHP-19-03150-1 1027 Buckeye Lane Villa Rica 30180 Carroll Go to Auction.com
07/02/2019 FREM-18-03735-3 109 Marcelline Ct Warner Robins 31088 Houston Go to Auction.com
07/02/2019 LNC-18-03892-6 822 Orchard Ln Waycross 31501 Ware Go to Xome.com
07/02/2019 QKN-19-03238-1 200 Avenue C West Point 31833 Harris Go to Auction.com
07/02/2019 FREM-19-01170-1 620 Nonsuch Way Winder 30680 Barrow Go to Auction.com
07/02/2019 SHP-18-03953-1 4400 Twiggs Rd Young Harris 30582 Towns Go to Auction.com
07/02/2019 RMU-19-02602-1 6196 Townsend Mill Road Young Harris 30582 Towns $140,000.00
08/06/2019 LNC-18-01906-3 1115 Anemone Way Nw Acworth 30102 Cobb Not Available
08/06/2019 PNY-19-03383-1 3850 Heartleaf Drive Nw Acworth 30101 Cobb Go to Auction.com
08/06/2019 RMS-19-03230-1 1402 Coxstill Rd Adel 31620 Cook Go to Auction.com
08/06/2019 SHP-18-07287-1 1209 Fifth Avenue Albany 31707 Dougherty Go to Auction.com
08/06/2019 SPS-17-05778-6 1707 W Whitney Ave Albany 31707 Dougherty Go to Auction.com
08/06/2019 FREM-19-03249-1 336 Wiregrass Way Albany 31721 Lee Go to Auction.com
08/06/2019 SPS-09-33623-38 115 Parkside Close Alpharetta 30022 Fulton Not Available
08/06/2019 AMI-19-01204-4 325 Crooked Stick Dr Alpharetta 30004 Fulton Not Available
08/06/2019 BAC-19-03193-1 201 E Hill Street Americus 31709 Sumter Go to Auction.com
08/06/2019 BVF-18-02322-4 154 Inglewood Ave Athens 30601 Clarke Not Available
08/06/2019 SEF-19-03678-1 330 Stoneland Dr Athens 30606 Clarke Not Available
08/06/2019 LNC-19-02938-1 1155 Kipling St Se Atlanta 30315 Fulton Go to Auction.com
08/06/2019 SEF-19-03665-1 119 Clay St Se Atlanta 30317 DeKalb Not Available
08/06/2019 QKN-19-03609-1 1327 Richland Rd Sw Atlanta 30310 Fulton Not Available
08/06/2019 FREM-18-08060-6 1595 Willowbrook Dr Sw Atlanta 30311 Fulton Not Available
08/06/2019 REG-19-02824-2 203 Woodcliff Drive, Unit 203 Atlanta 30350 Fulton Bid Not Available
08/06/2019 DMI-13-08486-50 2032 West Cedar Lane Atlanta 30311 Fulton Not Available
08/06/2019 AMI-18-02636-5 250 Amal Dr Sw, Apt 8002 Atlanta 30315 Fulton Not Available
08/06/2019 MTB-16-07898-14 3130 Esha Ct Sw Atlanta 30311 Fulton Go to Auction.com
08/06/2019 SPS-18-02413-3 3359 Oakcliff Rd Nw Atlanta 30331 Fulton Not Available
08/06/2019 DMI-16-07076-15 349 Sand Bay Drive Sw Atlanta 30331 Fulton Go to Hudsonmarshall.com
08/06/2019 FAY-19-03617-1 3526 Eisenhower Cir Se Atlanta 30354 Fulton Not Available
08/06/2019 SPS-16-07336-4 3627 Ginnis Rd Sw #a-8 Atlanta 30331 Fulton Not Available
08/06/2019 PNY-19-03853-1 4075 Lake Manor Way Atlanta 30349 Fulton Go to Auction.com
08/06/2019 SPS-19-00427-5 425 Cascade Rise Court Atlanta 30331 Fulton Not Available
08/06/2019 SEF-17-07531-6 4520 Thompson Road Atlanta 30349 Fulton Go to Auction.com
08/06/2019 BMT-19-02308-1 478 Grant St Atlanta 30312 Fulton Not Available
08/06/2019 SHP-19-03336-1 5448 Sw Stone Cove Drive Atlanta 30331 Fulton Go to Auction.com
08/06/2019 SEF-19-03682-1 72 Chaumont Sq Nw Atlanta 30327 Fulton Not Available
08/06/2019 SPS-18-06368-2 890 Windcrest Pl Sw Atlanta 30331 Fulton Not Available
08/06/2019 BAC-19-03424-1 951 Glenwood Avenue #1602 Atlanta 30316 Fulton Go to Auction.com
08/06/2019 PNY-19-03457-1 970 Ne Sidney Marcus Blvd, #2213 Atlanta 30324 Fulton Go to Auction.com
08/06/2019 SHP-19-02719-1 3203 Bel Ridge Rd Augusta 30909 Richmond Go to Auction.com
08/06/2019 PNY-19-03026-2 20 Port Richey Way Brunswick 31523 Glynn Go to Auction.com
08/06/2019 RMU-19-03832-1 600 7th Street Sw Cairo 39828 Grady Not Available
08/06/2019 SHP-16-00655-13 4351 Whiteleaf Way Canton 30115 Cherokee Go to Auction.com
08/06/2019 PNY-18-07092-3 33 Rosen St Nw Cartersville 30120 Bartow Go to Auction.com
08/06/2019 BVF-19-03362-1 2572 Goshen Creek Rd Clarkesville 30523 Habersham Not Available
08/06/2019 BVF-17-07817-1 5500 Park Pl Unit 64 S College Park 30349 Clayton Not Available
08/06/2019 PNY-18-05629-1 406s Cuthbert St Colquitt 39837 Miller Go to Auction.com
08/06/2019 BVF-18-08020-4 1111 Henry Avenue Columbus 31906 Muscogee Not Available
08/06/2019 BVF-15-06390-4 248 Robert E Lee Dr Columbus 31903 Muscogee Not Available
08/06/2019 BVF-17-08210-4 2849 Grant Road Columbus 31907 Muscogee Not Available
08/06/2019 SHP-19-03569-1 160 Millwood Rd Concord 30206 Pike Go to Auction.com
08/06/2019 SEF-19-03667-1 3420 Salem Cove Trl Se Conyers 30013 Newton Not Available
08/06/2019 MTB-19-03864-1 632 Buckeye Cir Se Conyers 30094 Rockdale Go to Auction.com
08/06/2019 SPS-17-02975-3 300 Hazelhurst Dr Covington 30016 Newton Not Available
08/06/2019 AMI-16-02298-9 435 Berkshire Dr Covington 30016 Newton Not Available
08/06/2019 SBC-17-04813-10 440 Milton Dr Covington 30016 Newton Go to Auction.com
08/06/2019 SPS-19-03774-1 45 Trinity Lane Covington 30016 Newton Not Available
08/06/2019 SPS-12-01385-23 1075 Timberlake Trail Cumming 30041 Forsyth Not Available
08/06/2019 REG-19-03562-1 5790 Rolling Oaks Circle Cumming 30040 Forsyth Bid Not Available
08/06/2019 BAC-16-07984-5 2 Mill Creek Hollow Fka 1577 Mill Creek Hollow Dallas 30132 Paulding Go to Auction.com
08/06/2019 PNY-19-03861-1 3213 Mt Olivet Rd Dallas 30132 Paulding Go to Auction.com
08/06/2019 BVF-19-03513-1 64 Hatties Fancy Dallas 30157 Paulding Go to Auction.com
08/06/2019 PNY-16-00859-11 3070 Corbin Ave Decatur 30034 DeKalb Not Available
08/06/2019 FREM-18-07756-3 3616 Sycamore Bnd Decatur 30034 DeKalb Go to Auction.com
08/06/2019 PNY-18-06742-1 98 Ed Ray Rd Denton 31532 Jeff Davis Not Available
08/06/2019 RMU-18-01944-3 1144 Sinkhole Rd Douglas 31535 Coffee Not Available
08/06/2019 MTB-19-03863-1 1470 Wynsong Ct Douglasville 30134 Douglas Go to Auction.com
08/06/2019 MTB-19-03533-1 1600 Wembley Drive Douglasville 30134 Douglas Go to Auction.com
08/06/2019 BAC-18-07751-5 6389 Hillview Lane Douglasville 30134 Douglas Go to Auction.com
08/06/2019 SPS-15-04968-12 3670 River Mansion Drive Duluth 30096 Gwinnett Not Available
08/06/2019 SPS-16-01198-14 2776 Lancaster Dr East Point 30344 Fulton Go to Auction.com
08/06/2019 QKN-19-03485-1 3736 Calmer Cir East Point 30344 Fulton Go to Auction.com
08/06/2019 RMS-19-03669-1 105 Ensley Pt Fayetteville 30214 Fayette Go to Auction.com
08/06/2019 BAC-18-00586-6 11896 Harbour Town Pkwy Fayetteville 30215 Clayton Go to Auction.com
08/06/2019 BVF-18-03905-4 1307 Ga Highway 83 S Forsyth 31029 Monroe Not Available
08/06/2019 SPS-18-01143-7 215 Lawn Street Fort Valley 31030 Peach Not Available
08/06/2019 NAT-17-06817-3 417 Lamar Street Fort Valley 31030 Peach Go to Auction.com
08/06/2019 LNC-19-03502-1 1287 Satellite Cir Fortson 31808 Muscogee Go to Auction.com
08/06/2019 BVF-18-05038-3 172 Kendallwood Ch Rd Funston 31753 Colquitt Not Available
08/06/2019 SPS-10-02194-24 2990 Joshua Tree Lane Gainesville 30507 Hall Not Available
08/06/2019 PNY-19-00695-3 3147 Legacy Glen Path Gainesville 30507 Hall Go to Auction.com
08/06/2019 PNY-18-05364-13 3247 Heatherwood Drive Gainesville 30507 Hall Go to Auction.com
08/06/2019 LNC-18-03144-10 104 Liberty St Glennville 30427 Tattnall Not Available
08/06/2019 NAT-16-05510-17 1154 Willow Trace Grayson 30017 Gwinnett Go to Auction.com
08/06/2019 AMI-19-02633-2 414 Copeland Street Grayson 30017 Gwinnett Not Available
08/06/2019 BVF-19-03369-1 581 Hudson Rd Griffin 30223 Spalding Not Available
08/06/2019 PNY-19-02217-1 331 Brentford Ave Grovetown 30813 Columbia Not Available
08/06/2019 LNC-19-02670-1 8003 Battle St Grovetown 30813 Columbia Not Available
08/06/2019 QKN-18-07097-2 613 Stagecoach Trl Hahira 31632 Lowndes Go to Auction.com
08/06/2019 BVF-19-01003-3 156 Henson Rd Hawkinsville 31036 Houston Not Available
08/06/2019 FREM-18-01412-1 1065 Fox Den Rd Hephzibah 30815 Richmond Go to Auction.com
08/06/2019 SPS-18-05485-3 3807 Shari St Hephzibah 30815 Richmond Not Available
08/06/2019 RMS-19-03483-1 4126 Old Waynesboro Rd Hephzibah 30815 Richmond Go to Auction.com
08/06/2019 SHP-19-03269-1 103 Eunice Rd Hinesville 31313 Liberty Go to Auction.com
08/06/2019 PNY-19-02944-1 1619 Seneca Ln Hinesville 31313 Liberty Not Available
08/06/2019 TMS-19-03160-1 1914 Salisbury Way Hinesville 31313 Liberty Go to Auction.com
08/06/2019 PNY-19-01158-3 258 Garden Circle Hinesville 31313 Liberty Not Available
08/06/2019 LNC-19-02647-1 611 Trevor St Hinesville 31313 Liberty Not Available
08/06/2019 PNY-19-03205-1 805 Grove Pl Hinesville 31313 Liberty Not Available
08/06/2019 BVF-18-05277-6 107 Hightower St Hogansville 30230 Troup Not Available
08/06/2019 PNY-19-03028-1 1252 Shrine Club Rd Jesup 31545 Wayne Not Available
08/06/2019 SBC-18-05267-8 3019 Saint Andrews Ct Jonesboro 30236 Clayton Go to Auction.com
08/06/2019 PNY-18-01436-3 476 Wesley Park Dr Jonesboro 30238 Clayton Go to Auction.com
08/06/2019 FREM-19-03299-1 3830 Aspen Springs Nw Kennesaw 30144 Cobb Go to Auction.com
08/06/2019 BVF-18-00455-2 3020 Hamilton Rd Lagrange 30240 Troup Not Available
08/06/2019 FAY-18-04743-3 1143 S Fairview, # R Lavonia 30553 Franklin Not Available
08/06/2019 BVF-19-03190-1 1537 Teal Dr Lawrenceville 30043 Gwinnett Not Available
08/06/2019 QKN-19-01004-2 1689 Wilford Dr Lawrenceville 30043 Gwinnett Go to Auction.com
08/06/2019 PNY-19-03151-1 1747 Country Park Way Lawrenceville 30043 Gwinnett Go to Auction.com
08/06/2019 PNY-19-02052-2 1260 Paradise St Lincolnton 30817 Lincoln Not Available
08/06/2019 PNY-17-05033-10 1577 Roscommon Cv Lithonia 30058 DeKalb Not Available
08/06/2019 MTB-16-07104-14 2737 Penwood Place Lithonia 30058 DeKalb Not Available
08/06/2019 SPS-11-06178-9 6231 Windy Ridge Trl Lithonia 30058 DeKalb Not Available
08/06/2019 RLM-16-04822-6 6232 Leverett Drive Lithonia 30038 DeKalb Not Available
08/06/2019 NAT-19-03500-1 3896 Cove Top Ct Loganville 30052 Gwinnett Go to Auction.com
08/06/2019 LNC-17-06018-16 5894 Brookmere Park Drive Mabelton 30126 Cobb Go to Auction.com
08/06/2019 SHP-19-03016-1 5519 Highland Preserve Dr Mableton 30126 Cobb Go to Auction.com
08/06/2019 QKN-19-02562-1 131 N Springs Ct Macon 31210 Bibb Go to Auction.com
08/06/2019 BVF-18-02824-6 147 Spradley Dr Macon 31211 Jones Not Available
08/06/2019 BVF-19-03365-1 941 Ahwenasa Trl Macon 31220 Bibb Not Available
08/06/2019 SEF-19-03663-1 1201 Lanier Drive Sw Marietta 30060 Cobb Not Available
08/06/2019 SHP-18-07713-1 3245 Perch Dr Marietta 30008 Cobb Go to Auction.com
08/06/2019 ATF-12-01863-14 3252 Brown Road Martin 30557 Franklin Not Available
08/06/2019 QKN-19-03233-1 108 River Park Cir Mcdonough 30252 Henry Go to Auction.com
08/06/2019 FREM-18-05716-6 133 Gambier Cv Mcdonough 30252 Henry Go to realtybid.com
08/06/2019 CMS-19-00990-7 1332 Cochran Crossing Mcdonough 30252 Henry Go to Auction.com
08/06/2019 NAT-14-02658-11 155 Lowe Road Milledgeville 31061 Baldwin Go to Auction.com
08/06/2019 FREM-19-03474-1 1060 Glen Mill Court Milton 30004 Fulton Go to Auction.com
08/06/2019 SEF-19-03685-1 100 Etten Ct Monroe 30655 Walton Not Available
08/06/2019 SPS-18-04094-10 207 Belmont Dr Monroe 30655 Walton Not Available
08/06/2019 AMI-18-00731-5 922 Masters Drive Monroe 30655 Walton Not Available
08/06/2019 BVF-19-02888-1 7142 Georges Way Morrow 30260 Clayton Not Available
08/06/2019 QKN-19-03235-1 124 Glendale Dr Peachtree City 30269 Fayette Go to Auction.com
08/06/2019 SPS-17-06713-18 239 Lake Joy Road Perry 31069 Houston Not Available
08/06/2019 MTB-19-00060-6 175 Hamilton Grove Dr Pooler 31322 Chatham Not Available
08/06/2019 SPS-19-03524-1 3275 Barnwell Trace Powder Springs 30127 Cobb Not Available
08/06/2019 BVF-17-03739-15 6130 Wheatfield Court Powder Springs 30127 Cobb Not Available
08/06/2019 SPS-14-00861-21 900 Redwood Lane Quitman 31643 Brooks Not Available
08/06/2019 QKN-19-03608-1 200 Fawn Ridge Trl Rabun Gap 30568 Rabun Not Available
08/06/2019 PNY-19-00202-7 235 Potts Road Ringgold 30736 Catoosa Go to Auction.com
08/06/2019 BVF-19-02967-1 1627 Norden Rd Riverdale 30296 Clayton Not Available
08/06/2019 SPS-18-04363-6 245 Antebellum Cir Riverdale 30274 Clayton Not Available
08/06/2019 BVF-18-02976-3 6121 Radford Dr Riverdale 30296 Clayton Not Available
08/06/2019 BVF-18-00648-4 6689 Judy Ln Riverdale 30296 Clayton Go to Auction.com
08/06/2019 BAC-11-12083-11 7678 Broadhurst Dr Riverdale 30296 Clayton Go to Auction.com
08/06/2019 SPS-16-00981-22 8050 Mustang Ln Riverdale 30274 Clayton Not Available
08/06/2019 SNS-16-06613-9 2909 Hwy 95 Rock Spring 30739 Walker Not Available
08/06/2019 BSI-19-02587-1 652 Goodyear Ave Rockmart 30153 Polk Not Available
08/06/2019 BAC-19-03755-1 108 Sequoia Drive Se Rome 30161 Floyd Go to Auction.com
08/06/2019 PNY-19-03064-1 307 Hunt Club Rd Saint Marys 31558 Camden Not Available
08/06/2019 SHP-18-07160-3 332 Magnolia Dr Sautee Nacoochee 30571 White Go to Auction.com
08/06/2019 BVF-19-03194-1 103 Rendant Ave Savannah 31419 Chatham Not Available
08/06/2019 SEF-19-03677-1 121 E 65th St Savannah 31405 Chatham Not Available
08/06/2019 AMI-19-01386-4 40 E Wellwood Savannah 31419 Chatham Not Available
08/06/2019 PNY-18-07448-3 681 Linch Rd Senoia 30276 Coweta Go to Auction.com
08/06/2019 PNY-19-03498-1 10 Leesburg Plantation Sharpsburg 30277 Coweta Go to Auction.com
08/06/2019 PNY-19-03590-1 144 Wiggins Rd Smithville 31787 Sumter Go to Auction.com
08/06/2019 PNY-19-03065-1 1421 Montclair Ct Se Smyrna 30080 Cobb Go to Auction.com
08/06/2019 QKN-18-04872-1 3047 Moorings Pkwy Snellville 30039 Gwinnett Go to Auction.com
08/06/2019 LNC-19-02563-1 3645 Shrewsbury Ct Snellville 30039 Gwinnett Go to Auction.com
08/06/2019 SPS-11-13884-23 4165 Bridlegate Way Snellville 30039 Gwinnett Not Available
08/06/2019 CMS-18-07074-1 8463 Donald Rd Snellville 30039 DeKalb Not Available
08/06/2019 PNY-19-00387-6 4014 Candy Ln Statesboro 30461 Bulloch Not Available
08/06/2019 BVF-19-03189-1 55 Bridlewood Ct Stockbridge 30281 Henry Not Available
08/06/2019 SPS-18-06030-1 1161 Sherrington Drive Stone Mountain 30083 DeKalb $41,800.00
08/06/2019 BAC-18-07779-4 4148 Central Drive Stone Mountain 30083 DeKalb Go to Auction.com
08/06/2019 TMS-19-01387-9 4420 Lake Breeze Dr Stone Mountain 30083 DeKalb Go to Auction.com
08/06/2019 FREM-18-07792-6 6135 Swabia Court Stone Mountain 30087 DeKalb Go to Auction.com
08/06/2019 BAC-18-05603-5 6793 Wynbrooke Cove Stone Mountain 30087 DeKalb Go to Auction.com
08/06/2019 WCO-07-000023-4 722 Conisburgh Court Stone Mountain 30087 DeKalb Not Available
08/06/2019 CMS-15-01016-22 774 Whitman Court Stone Mountain 30083 DeKalb Go to Auction.com
08/06/2019 BSI-17-00565-12 783 Denise Court Stone Mountain 30087 Gwinnett Not Available
08/06/2019 SHP-15-03927-4 799 Heritage Oaks Drive Stone Mountain 30088 DeKalb Go to Auction.com
08/06/2019 TMS-19-03417-1 1720 Shire Village Dr Sugar Hill 30518 Gwinnett Go to Auction.com
08/06/2019 QKN-19-02264-2 6820 Grand Magnolia Dr Sugar Hill 30518 Gwinnett Go to Auction.com
08/06/2019 QKN-19-03484-1 706 N Westberry St Sylvester 31791 Worth Go to Auction.com
08/06/2019 BAC-19-03390-1 116 Villa Rosa Drive Temple 30179 Carroll Go to Auction.com
08/06/2019 BVF-19-03389-1 130 Springbrook Cir Temple 30179 Carroll Not Available
08/06/2019 PNY-19-01933-1 309 Pleasant Way Temple 30179 Paulding Not Available
08/06/2019 PNY-17-04695-11 107n Varnell Rd Tunnel Hill 30755 Whitfield Go to Auction.com
08/06/2019 FREM-17-02761-6 7388 Toccoa Cir Union City 30291 Fulton Go to Auction.com
08/06/2019 LNC-18-06241-1 3511 Mckee Rd Upatoi 31829 Harris Not Available
08/06/2019 SEF-19-03652-1 806 Mclemore Dr Vidalia 30474 Toombs Not Available
08/06/2019 BVF-19-03083-2 309 W Pine St Vienna 31902 Dooly Not Available
08/06/2019 LNC-19-03107-1 317 Douglas Drive Waverly 31565 Camden Not Available
08/06/2019 CMS-19-00161-7 265 Huntington Way Williamson 30292 Pike Go to Auction.com
08/06/2019 BVF-18-08156-2 205 Stream Side Ct Winder 30680 Barrow Not Available
08/06/2019 PNY-19-02588-1 167 Townview Dr Woodstock 30189 Cherokee Go to Auction.com
08/06/2019 SEF-19-03710-1 5008 Spice Garden Ln Woodstock 30189 Cherokee Not Available
08/06/2019 PNY-19-03591-1 702 Hedge Brook Dr Woodstock 30188 Cherokee Go to Auction.com
09/03/2019 LNC-19-02314-1 354 Bridgebrook Lane Sw Smyrna 30082 Cobb Go to Xome.com